Pagina principale
METAR-TAF:

METAR-TAF

Aeroporti :

Aeroporto di Crotone

Crotone, Italia

latitudine: 39-00N, longitudine: 017-04E, altezza: 155 m

Osservazione

Il bollettino è stato emesso 51 minuti fa, alle 11:50 UTC
Vento 20 kt da sud-ovest
Temperature 17°C
Umidità 72%
Pressione 1004 hPa
Visibilità 10 km o più
Nubi sparse ad un'altezza di 4000 ft

METAR: LIBC 131150Z 22020KT 9999 SCT040 17/12 Q1004

Ora: 13:41 (12:41 UTC)

Previsione

Il bollettino è stato emesso 57 minuti fa, alle 11:44 UTC
Previsione valida dal 13 alle 12 UTC al 14 alle 12 UTC
Vento 16 kt da sud-ovest con raffiche fino a 26 kt
Visibilità 10 km o più
Nubi sparse ad un'altezza di 3000 ft
Evoluzione graduale
dal 13 alle 12 UTC al 13 alle 14 UTC
Vento 8 kt da sud-ovest

TAF: LIBC 131144Z 1312/1412 22016G26KT 9999 SCT030 BECMG 1312/1314 22008KT

Osservazioni e previsioni meteorologiche di più di 4000 aeroporti (messaggi METAR e TAF).

Le stazioni disponibili sono rappresentate dai dischi gialli e rossi sulla carta.

Puntare il mouse per vedere il nome della stazione.

Clicca sopra per visualizzare le osservazioni e previsioni meteorologiche.

Per cambiare la mappa : fare clic sui pulsanti verdi con una croce nera per ingrandire, il pulsante verde con un trattino per diminuire, o sulla freccia verde per le mappe adiacenti.


METAR-TAF: